createdAt,value
2022-10-03T00:02:58.518Z,10.20
2022-10-03T00:06:52.154Z,10.20
2022-10-03T00:10:57.093Z,10.10
2022-10-03T00:14:48.036Z,10.10
2022-10-03T00:18:34.378Z,10.10
2022-10-03T00:23:03.942Z,10.00
2022-10-03T00:27:08.716Z,10.00
2022-10-03T00:31:36.217Z,10.00
2022-10-03T00:35:51.453Z,10.10
2022-10-03T00:39:33.129Z,10.10
2022-10-03T00:43:40.605Z,10.10
2022-10-03T00:47:51.161Z,10.10
2022-10-03T00:51:54.451Z,10.10
2022-10-03T00:55:51.524Z,10.10
2022-10-03T00:59:59.157Z,10.20
2022-10-03T01:03:43.651Z,10.20
2022-10-03T01:07:51.164Z,10.20
2022-10-03T01:11:57.571Z,10.20
2022-10-03T01:16:28.117Z,10.20
2022-10-03T01:20:50.686Z,10.20
2022-10-03T01:24:46.780Z,10.30
2022-10-03T01:29:23.373Z,10.30
2022-10-03T01:33:29.646Z,10.40
2022-10-03T01:37:22.858Z,10.40
2022-10-03T01:41:13.890Z,10.40
2022-10-03T01:45:01.514Z,10.50
2022-10-03T01:49:08.053Z,10.50
2022-10-03T01:53:19.522Z,10.50
2022-10-03T01:57:14.572Z,10.50
2022-10-03T02:01:11.973Z,10.40
2022-10-03T02:05:00.105Z,10.50
2022-10-03T02:08:52.216Z,10.60
2022-10-03T02:12:46.652Z,10.60
2022-10-03T02:16:38.645Z,10.60
2022-10-03T02:20:30.949Z,10.70
2022-10-03T02:24:27.360Z,10.80
2022-10-03T02:28:31.458Z,10.90
2022-10-03T02:32:22.536Z,10.90
2022-10-03T02:36:45.796Z,11.00
2022-10-03T02:41:00.714Z,11.00
2022-10-03T02:45:19.663Z,11.10
2022-10-03T02:49:40.456Z,11.20
2022-10-03T02:53:43.374Z,11.20
2022-10-03T02:58:02.619Z,11.20
2022-10-03T03:02:08.589Z,11.30
2022-10-03T03:06:04.779Z,11.30
2022-10-03T03:10:11.488Z,11.30
2022-10-03T03:14:18.588Z,11.30
2022-10-03T03:18:15.329Z,11.30
2022-10-03T03:22:05.619Z,11.30
2022-10-03T03:25:53.083Z,11.30
2022-10-03T03:30:22.897Z,11.30
2022-10-03T03:34:25.868Z,11.20
2022-10-03T03:38:19.337Z,11.10
2022-10-03T03:46:59.342Z,11.00
2022-10-03T03:50:59.474Z,10.90
2022-10-03T03:54:55.591Z,10.90
2022-10-03T03:59:04.465Z,10.80
2022-10-03T04:02:54.993Z,10.80
2022-10-03T04:06:56.336Z,10.80
2022-10-03T04:10:43.900Z,10.70
2022-10-03T04:14:51.687Z,10.70
2022-10-03T04:19:00.730Z,10.70
2022-10-03T04:23:33.384Z,10.80
2022-10-03T04:32:11.218Z,10.80
2022-10-03T04:36:40.480Z,10.80
2022-10-03T04:40:43.565Z,10.80
2022-10-03T04:44:57.289Z,10.70
2022-10-03T04:49:12.131Z,10.70
2022-10-03T04:53:08.470Z,10.60
2022-10-03T04:57:07.863Z,10.60
2022-10-03T05:01:05.816Z,10.60
2022-10-03T05:05:35.033Z,10.60
2022-10-03T05:09:49.618Z,10.70
2022-10-03T05:14:02.197Z,10.70
2022-10-03T05:18:15.598Z,10.70
2022-10-03T05:22:38.587Z,10.70
2022-10-03T05:26:44.600Z,10.60
2022-10-03T05:30:53.363Z,10.70
2022-10-03T05:34:59.459Z,10.70
2022-10-03T05:39:02.777Z,10.70
2022-10-03T05:43:02.297Z,10.70
2022-10-03T05:46:56.001Z,10.80
2022-10-03T05:51:12.421Z,10.80
2022-10-03T05:55:14.100Z,10.80
2022-10-03T05:59:14.555Z,10.80
2022-10-03T06:03:27.369Z,10.90
2022-10-03T06:07:31.093Z,10.80
2022-10-03T06:11:43.579Z,10.90
2022-10-03T06:16:11.113Z,10.90
2022-10-03T06:20:11.370Z,10.90
2022-10-03T06:24:01.849Z,10.90
2022-10-03T06:28:26.852Z,11.00
2022-10-03T06:32:11.454Z,11.00
2022-10-03T06:36:30.120Z,11.00
2022-10-03T06:40:31.334Z,11.00
2022-10-03T06:44:37.428Z,11.00
2022-10-03T06:48:49.889Z,11.00
2022-10-03T06:52:59.331Z,11.10
2022-10-03T06:57:12.989Z,11.10
2022-10-03T07:01:12.975Z,11.10
2022-10-03T07:05:07.005Z,11.20
2022-10-03T07:08:58.438Z,11.20
2022-10-03T07:12:52.517Z,11.20
2022-10-03T07:16:56.129Z,11.30
2022-10-03T07:21:29.030Z,11.30
2022-10-03T07:25:46.013Z,11.40
2022-10-03T07:29:27.709Z,11.40
2022-10-03T07:33:59.307Z,11.50
2022-10-03T07:38:27.718Z,11.50
2022-10-03T07:42:44.741Z,11.60
2022-10-03T07:47:12.949Z,11.70
2022-10-03T07:51:03.516Z,11.80
2022-10-03T07:54:57.170Z,12.00
2022-10-03T07:59:04.248Z,12.00
2022-10-03T08:03:14.794Z,12.10
2022-10-03T08:07:32.333Z,12.20
2022-10-03T08:11:35.364Z,12.30
2022-10-03T08:15:43.828Z,12.40
2022-10-03T08:19:47.027Z,12.60
2022-10-03T08:23:43.897Z,12.80
2022-10-03T08:27:44.604Z,12.90
2022-10-03T08:31:44.052Z,13.10
2022-10-03T08:35:54.260Z,13.20
2022-10-03T08:40:00.268Z,13.40
2022-10-03T08:44:20.517Z,13.50
2022-10-03T08:48:10.861Z,13.80
2022-10-03T08:51:52.614Z,14.00
2022-10-03T08:55:55.668Z,14.20
2022-10-03T08:59:56.310Z,14.60
2022-10-03T09:03:56.463Z,15.10
2022-10-03T09:07:52.076Z,15.60
2022-10-03T09:12:01.055Z,16.50
2022-10-03T09:16:03.407Z,17.50
2022-10-03T09:20:07.766Z,18.20
2022-10-03T09:24:01.101Z,18.70
2022-10-03T09:28:17.002Z,19.30
2022-10-03T09:32:26.507Z,20.00
2022-10-03T09:36:12.981Z,20.50
2022-10-03T09:40:06.857Z,20.80
2022-10-03T09:44:17.875Z,20.70
2022-10-03T09:48:17.686Z,20.60
2022-10-03T09:52:22.836Z,20.40
2022-10-03T09:56:26.331Z,20.20
2022-10-03T10:00:20.126Z,20.10
2022-10-03T10:04:54.375Z,20.10
2022-10-03T10:13:10.230Z,20.10
2022-10-03T10:17:19.894Z,20.10
2022-10-03T10:21:36.752Z,20.20
2022-10-03T10:25:33.729Z,20.30
2022-10-03T10:29:49.897Z,20.30
2022-10-03T10:33:46.514Z,20.40
2022-10-03T10:37:58.872Z,20.40
2022-10-03T10:42:18.641Z,20.80
2022-10-03T10:46:29.240Z,21.30
2022-10-03T10:50:39.574Z,22.10
2022-10-03T10:54:35.794Z,22.80
2022-10-03T10:59:10.234Z,23.20
2022-10-03T11:03:16.763Z,23.60
2022-10-03T11:07:06.968Z,24.00
2022-10-03T11:11:19.403Z,24.20
2022-10-03T11:15:39.358Z,24.50
2022-10-03T11:19:21.078Z,24.60
2022-10-03T11:23:45.191Z,24.60
2022-10-03T11:28:01.798Z,24.70
2022-10-03T11:32:24.234Z,25.20
2022-10-03T11:36:21.372Z,25.60
2022-10-03T11:40:44.773Z,26.00
2022-10-03T11:49:10.285Z,26.30
2022-10-03T11:53:18.898Z,25.70
2022-10-03T12:01:37.418Z,24.50
2022-10-03T12:05:28.565Z,24.20
2022-10-03T12:09:25.288Z,24.10
2022-10-03T12:13:34.686Z,24.00
2022-10-03T12:21:51.244Z,24.10
2022-10-03T12:25:36.816Z,23.90
2022-10-03T12:29:21.824Z,23.70
2022-10-03T12:33:35.682Z,23.30
2022-10-03T12:37:45.227Z,22.80
2022-10-03T12:41:45.954Z,22.30
2022-10-03T12:45:32.806Z,21.90
2022-10-03T12:49:39.060Z,21.80
2022-10-03T12:53:48.781Z,21.80
2022-10-03T12:58:05.790Z,21.90
2022-10-03T13:02:02.511Z,21.80
2022-10-03T13:07:01.599Z,21.90
2022-10-03T13:10:43.537Z,21.80
2022-10-03T13:14:48.669Z,21.90
2022-10-03T13:18:33.512Z,21.90
2022-10-03T13:22:39.105Z,21.90
2022-10-03T13:27:09.100Z,21.70
2022-10-03T13:31:01.600Z,21.50
2022-10-03T13:35:25.292Z,21.50
2022-10-03T13:39:19.365Z,21.30
2022-10-03T13:43:04.817Z,21.20
2022-10-03T13:46:57.034Z,21.30
2022-10-03T13:50:56.673Z,21.40
2022-10-03T13:54:41.507Z,21.50
2022-10-03T13:58:45.508Z,21.50
2022-10-03T14:03:01.662Z,21.50
2022-10-03T14:07:12.702Z,21.60
2022-10-03T14:10:59.833Z,21.90
2022-10-03T14:15:10.958Z,22.00
2022-10-03T14:19:17.233Z,22.30
2022-10-03T14:23:26.285Z,22.50
2022-10-03T14:27:33.603Z,22.50
2022-10-03T14:31:25.248Z,22.30
2022-10-03T14:35:42.682Z,21.90
2022-10-03T14:39:58.796Z,21.50
2022-10-03T14:44:12.965Z,21.20
2022-10-03T14:48:03.129Z,21.10
2022-10-03T14:51:51.243Z,21.40
2022-10-03T14:55:59.606Z,21.70
2022-10-03T14:59:41.450Z,21.90
2022-10-03T15:03:29.072Z,22.00
2022-10-03T15:07:13.424Z,22.30
2022-10-03T15:10:56.566Z,22.60
2022-10-03T15:14:42.945Z,22.80
2022-10-03T15:18:25.197Z,23.00
2022-10-03T15:22:28.990Z,23.40
2022-10-03T15:26:23.488Z,23.50
2022-10-03T15:30:06.632Z,23.40
2022-10-03T15:33:52.435Z,23.50
2022-10-03T15:37:47.489Z,23.00
2022-10-03T15:41:51.285Z,22.50
2022-10-03T15:45:35.203Z,22.10
2022-10-03T15:49:39.990Z,21.70
2022-10-03T15:53:37.761Z,21.10
2022-10-03T15:57:29.387Z,20.50
2022-10-03T16:01:20.882Z,20.20
2022-10-03T16:05:07.377Z,19.90
2022-10-03T16:09:04.368Z,19.70
2022-10-03T16:13:04.223Z,19.50
2022-10-03T16:16:54.814Z,19.40
2022-10-03T16:20:45.616Z,19.40
2022-10-03T16:25:03.592Z,19.30
2022-10-03T16:28:50.608Z,19.20
2022-10-03T16:32:36.522Z,19.10
2022-10-03T16:36:21.096Z,18.90
2022-10-03T16:40:06.742Z,18.90
2022-10-03T16:44:03.973Z,18.80
2022-10-03T16:48:07.617Z,18.70
2022-10-03T16:52:12.075Z,18.60
2022-10-03T16:56:02.287Z,18.40
2022-10-03T16:59:48.807Z,18.40
2022-10-03T17:03:37.669Z,18.30
2022-10-03T17:07:36.014Z,18.10
2022-10-03T17:11:21.693Z,18.10
2022-10-03T17:15:17.654Z,17.90
2022-10-03T17:19:05.552Z,17.80
2022-10-03T17:23:10.459Z,17.70
2022-10-03T17:26:57.284Z,17.70
2022-10-03T17:31:04.385Z,17.60
2022-10-03T17:35:05.535Z,17.50
2022-10-03T17:38:57.530Z,17.50
2022-10-03T17:43:04.067Z,17.40
2022-10-03T17:47:03.897Z,17.30
2022-10-03T17:51:05.232Z,17.20
2022-10-03T17:54:51.030Z,17.20
2022-10-03T17:58:33.388Z,17.10
2022-10-03T18:02:21.593Z,17.10
2022-10-03T18:06:29.029Z,17.00
2022-10-03T18:10:44.024Z,16.90
2022-10-03T18:14:51.001Z,16.70
2022-10-03T18:18:47.606Z,16.50
2022-10-03T18:22:40.742Z,16.30
2022-10-03T18:26:28.604Z,16.10
2022-10-03T18:30:45.468Z,15.90
2022-10-03T18:34:34.565Z,15.80
2022-10-03T18:38:29.669Z,15.60
2022-10-03T18:42:11.868Z,15.50
2022-10-03T18:46:03.610Z,15.40
2022-10-03T18:49:55.063Z,15.40
2022-10-03T18:53:56.878Z,15.40
2022-10-03T18:57:49.017Z,15.40
2022-10-03T19:01:52.031Z,15.40
2022-10-03T19:05:57.818Z,15.40
2022-10-03T19:09:45.927Z,15.40
2022-10-03T19:13:34.789Z,15.40
2022-10-03T19:17:34.669Z,15.40
2022-10-03T19:21:18.968Z,15.30
2022-10-03T19:25:04.471Z,15.30
2022-10-03T19:28:52.621Z,15.30
2022-10-03T19:32:49.572Z,15.20
2022-10-03T19:36:35.030Z,15.20
2022-10-03T19:40:45.265Z,15.10
2022-10-03T19:44:28.534Z,15.10
2022-10-03T19:48:12.254Z,15.10
2022-10-03T19:52:10.142Z,15.00
2022-10-03T19:55:53.326Z,15.00
2022-10-03T19:59:48.510Z,15.00
2022-10-03T20:03:44.969Z,15.00
2022-10-03T20:07:51.737Z,15.00
2022-10-03T20:11:49.320Z,15.00
2022-10-03T20:15:44.775Z,15.00
2022-10-03T20:19:29.438Z,15.00
2022-10-03T20:23:15.046Z,15.00
2022-10-03T20:27:29.460Z,15.00
2022-10-03T20:31:11.845Z,15.00
2022-10-03T20:34:58.375Z,15.00
2022-10-03T20:38:43.126Z,15.00
2022-10-03T20:42:30.842Z,15.00
2022-10-03T20:46:37.672Z,15.00
2022-10-03T20:50:45.525Z,14.90
2022-10-03T20:54:59.873Z,14.80
2022-10-03T20:58:53.854Z,14.80
2022-10-03T21:02:41.670Z,14.80
2022-10-03T21:06:37.136Z,14.70
2022-10-03T21:10:23.442Z,14.70
2022-10-03T21:14:11.073Z,14.70
2022-10-03T21:17:55.812Z,14.70
2022-10-03T21:21:43.307Z,14.70
2022-10-03T21:25:32.495Z,14.80
2022-10-03T21:29:30.678Z,14.80
2022-10-03T21:33:20.935Z,14.80
2022-10-03T21:37:11.839Z,14.80
2022-10-03T21:41:12.479Z,14.70
2022-10-03T21:45:09.858Z,14.50
2022-10-03T21:49:20.196Z,14.50
2022-10-03T21:53:17.346Z,14.40
2022-10-03T21:57:20.104Z,14.30
2022-10-03T22:01:18.825Z,14.20
2022-10-03T22:05:15.339Z,14.20
2022-10-03T22:09:02.844Z,14.20
2022-10-03T22:12:50.971Z,14.10
2022-10-03T22:16:58.102Z,14.10
2022-10-03T22:20:50.768Z,14.10
2022-10-03T22:24:52.319Z,14.10
2022-10-03T22:28:49.115Z,14.10
2022-10-03T22:33:18.570Z,14.10
2022-10-03T22:37:01.002Z,14.10
2022-10-03T22:40:45.422Z,14.20
2022-10-03T22:44:31.875Z,14.10
2022-10-03T22:48:24.654Z,14.10
2022-10-03T22:52:12.306Z,14.10
2022-10-03T22:55:58.761Z,14.10
2022-10-03T22:59:48.285Z,14.10
2022-10-03T23:03:34.295Z,14.00
2022-10-03T23:07:31.777Z,14.10
2022-10-03T23:11:22.408Z,14.20
2022-10-03T23:15:06.618Z,14.20
2022-10-03T23:19:16.829Z,14.30
2022-10-03T23:23:04.113Z,14.40
2022-10-03T23:26:50.765Z,14.50
2022-10-03T23:30:35.575Z,14.40
2022-10-03T23:34:38.127Z,14.30
2022-10-03T23:38:31.921Z,14.30
2022-10-03T23:42:26.164Z,14.30
2022-10-03T23:46:14.760Z,14.30
2022-10-03T23:49:57.091Z,14.40
2022-10-03T23:53:42.037Z,14.40
2022-10-03T23:57:31.438Z,14.40
